createdAt,value
2019-06-21T00:00:11.173Z,94.12
2019-06-21T00:01:11.171Z,94.31
2019-06-21T00:02:11.141Z,94.41
2019-06-21T00:03:11.131Z,94.41
2019-06-21T00:04:11.115Z,94.41
2019-06-21T00:05:11.117Z,94.60
2019-06-21T00:06:11.098Z,94.60
2019-06-21T00:07:11.075Z,94.51
2019-06-21T00:08:11.058Z,94.60
2019-06-21T00:09:11.056Z,94.51
2019-06-21T00:10:11.053Z,94.60
2019-06-21T00:11:11.017Z,94.65
2019-06-21T00:12:11.000Z,94.74
2019-06-21T00:13:10.985Z,94.65
2019-06-21T00:14:10.985Z,94.65
2019-06-21T00:15:10.979Z,94.74
2019-06-21T00:16:10.947Z,94.55
2019-06-21T00:17:10.935Z,94.74
2019-06-21T00:18:10.918Z,94.84
2019-06-21T00:19:10.908Z,94.84
2019-06-21T00:20:10.895Z,94.55
2019-06-21T00:21:10.889Z,94.84
2019-06-21T00:22:10.866Z,94.93
2019-06-21T00:23:10.849Z,95.03
2019-06-21T00:24:10.960Z,94.93
2019-06-21T00:25:10.819Z,94.55
2019-06-21T00:26:10.880Z,94.74
2019-06-21T00:27:10.793Z,94.84
2019-06-21T00:28:10.782Z,94.84
2019-06-21T00:29:10.769Z,95.03
2019-06-21T00:30:10.760Z,94.84
2019-06-21T00:31:10.737Z,94.46
2019-06-21T00:32:10.722Z,94.26
2019-06-21T00:33:11.321Z,94.89
2019-06-21T00:34:10.777Z,94.55
2019-06-21T00:35:10.682Z,94.60
2019-06-21T00:36:10.682Z,94.60
2019-06-21T00:37:10.656Z,94.60
2019-06-21T00:38:10.642Z,94.89
2019-06-21T00:39:10.626Z,94.89
2019-06-21T00:40:10.615Z,94.70
2019-06-21T00:41:10.688Z,94.70
2019-06-21T00:42:10.589Z,94.79
2019-06-21T00:43:10.574Z,94.98
2019-06-21T00:44:10.558Z,94.98
2019-06-21T00:45:10.546Z,94.98
2019-06-21T00:46:10.533Z,95.07
2019-06-21T00:47:10.521Z,95.07
2019-06-21T00:48:10.503Z,95.65
2019-06-21T00:49:10.484Z,95.65
2019-06-21T00:50:10.480Z,95.65
2019-06-21T00:51:10.472Z,95.84
2019-06-21T00:52:10.457Z,95.65
2019-06-21T00:53:10.448Z,95.65
2019-06-21T00:54:10.423Z,95.75
2019-06-21T00:55:10.410Z,95.46
2019-06-21T00:56:10.392Z,95.51
2019-06-21T00:57:10.378Z,95.61
2019-06-21T00:58:10.380Z,95.51
2019-06-21T00:59:10.357Z,95.51
2019-06-21T01:00:10.335Z,95.61
2019-06-21T01:01:10.327Z,95.51
2019-06-21T01:02:10.312Z,95.61
2019-06-21T01:03:10.295Z,95.22
2019-06-21T01:04:10.282Z,95.22
2019-06-21T01:05:10.272Z,95.03
2019-06-21T01:06:10.257Z,95.03
2019-06-21T01:07:10.247Z,94.93
2019-06-21T01:08:10.244Z,94.93
2019-06-21T01:09:10.215Z,95.51
2019-06-21T01:10:10.205Z,95.12
2019-06-21T01:11:10.190Z,95.12
2019-06-21T01:12:10.184Z,95.03
2019-06-21T01:13:10.163Z,95.03
2019-06-21T01:14:10.147Z,94.93
2019-06-21T01:15:10.139Z,95.17
2019-06-21T01:16:10.123Z,95.03
2019-06-21T01:17:10.116Z,95.07
2019-06-21T01:18:10.097Z,95.36
2019-06-21T01:19:10.084Z,95.07
2019-06-21T01:20:10.068Z,95.17
2019-06-21T01:21:10.054Z,94.69
2019-06-21T01:22:10.042Z,94.79
2019-06-21T01:23:10.029Z,94.98
2019-06-21T01:24:10.023Z,94.98
2019-06-21T01:25:10.045Z,94.89
2019-06-21T01:26:09.994Z,95.27
2019-06-21T01:27:09.997Z,94.89
2019-06-21T01:28:09.962Z,94.50
2019-06-21T01:29:09.948Z,95.36
2019-06-21T01:30:09.935Z,94.84
2019-06-21T01:31:09.921Z,95.03
2019-06-21T01:32:09.908Z,95.17
2019-06-21T01:33:09.895Z,94.98
2019-06-21T01:34:09.883Z,95.17
2019-06-21T01:35:09.910Z,94.98
2019-06-21T01:36:09.885Z,95.07
2019-06-21T01:37:09.842Z,94.98
2019-06-21T01:38:16.309Z,95.31
2019-06-21T01:39:09.833Z,94.50
2019-06-21T01:40:09.813Z,94.79
2019-06-21T01:41:09.788Z,95.03
2019-06-21T01:42:09.775Z,94.89
2019-06-21T01:43:09.761Z,94.74
2019-06-21T01:44:09.738Z,94.84
2019-06-21T01:45:09.775Z,94.74
2019-06-21T01:46:09.716Z,95.36
2019-06-21T01:47:09.752Z,94.89
2019-06-21T01:48:09.824Z,94.93
2019-06-21T01:49:09.679Z,94.84
2019-06-21T01:50:09.679Z,94.84
2019-06-21T01:51:09.679Z,95.12
2019-06-21T01:52:09.641Z,95.22
2019-06-21T01:53:09.708Z,95.31
2019-06-21T01:54:09.631Z,95.12
2019-06-21T01:55:09.603Z,94.84
2019-06-21T01:56:09.622Z,94.93
2019-06-21T01:57:09.575Z,94.84
2019-06-21T01:58:09.558Z,94.93
2019-06-21T01:59:09.546Z,95.12
2019-06-21T02:00:09.533Z,95.03
2019-06-21T02:01:09.517Z,95.03
2019-06-21T02:02:09.506Z,95.07
2019-06-21T02:03:09.488Z,95.03
2019-06-21T02:04:09.475Z,95.27
2019-06-21T02:05:09.463Z,95.65
2019-06-21T02:06:09.459Z,95.36
2019-06-21T02:07:09.435Z,95.27
2019-06-21T02:08:09.419Z,95.36
2019-06-21T02:09:09.409Z,95.46
2019-06-21T02:10:09.398Z,95.17
2019-06-21T02:11:09.382Z,95.46
2019-06-21T02:12:09.365Z,95.65
2019-06-21T02:13:09.356Z,95.46
2019-06-21T02:14:09.337Z,95.46
2019-06-21T02:15:09.330Z,95.36
2019-06-21T02:16:09.315Z,95.36
2019-06-21T02:17:09.306Z,95.36
2019-06-21T02:18:09.286Z,95.22
2019-06-21T02:19:09.277Z,95.51
2019-06-21T02:20:09.256Z,95.41
2019-06-21T02:21:09.247Z,95.51
2019-06-21T02:22:09.231Z,95.12
2019-06-21T02:23:09.215Z,95.61
2019-06-21T02:24:09.204Z,95.70
2019-06-21T02:25:09.187Z,95.51
2019-06-21T02:26:09.194Z,95.61
2019-06-21T02:27:09.160Z,95.89
2019-06-21T02:28:09.143Z,95.79
2019-06-21T02:29:09.135Z,95.70
2019-06-21T02:30:09.121Z,95.79
2019-06-21T02:31:09.103Z,95.61
2019-06-21T02:32:09.092Z,95.79
2019-06-21T02:33:09.094Z,95.79
2019-06-21T02:34:09.079Z,95.79
2019-06-21T02:35:09.050Z,95.41
2019-06-21T02:36:09.044Z,95.79
2019-06-21T02:37:09.020Z,95.79
2019-06-21T02:38:09.019Z,95.61
2019-06-21T02:39:09.013Z,95.51
2019-06-21T02:40:08.981Z,95.61
2019-06-21T02:41:08.966Z,95.41
2019-06-21T02:42:08.953Z,95.41
2019-06-21T02:43:08.937Z,95.79
2019-06-21T02:44:08.925Z,95.61
2019-06-21T02:45:08.915Z,95.61
2019-06-21T02:46:08.897Z,95.61
2019-06-21T02:47:08.889Z,95.89
2019-06-21T02:48:08.896Z,95.61
2019-06-21T02:49:08.857Z,95.79
2019-06-21T02:50:08.845Z,95.89
2019-06-21T02:51:08.833Z,95.79
2019-06-21T02:52:08.813Z,95.89
2019-06-21T02:53:08.808Z,95.79
2019-06-21T02:54:08.784Z,95.98
2019-06-21T02:55:08.772Z,95.79
2019-06-21T02:56:08.761Z,95.98
2019-06-21T02:57:08.745Z,95.79
2019-06-21T02:58:08.729Z,95.70
2019-06-21T02:59:08.716Z,96.56
2019-06-21T03:00:08.715Z,96.08
2019-06-21T03:01:08.685Z,95.98
2019-06-21T03:02:08.671Z,96.08
2019-06-21T03:03:08.667Z,95.79
2019-06-21T03:04:08.647Z,96.08
2019-06-21T03:05:08.626Z,95.98
2019-06-21T03:06:08.614Z,95.98
2019-06-21T03:07:08.601Z,95.70
2019-06-21T03:08:08.587Z,96.37
2019-06-21T03:09:15.376Z,96.08
2019-06-21T03:10:08.571Z,96.08
2019-06-21T03:11:08.547Z,96.37
2019-06-21T03:12:08.543Z,96.37
2019-06-21T03:13:08.517Z,96.18
2019-06-21T03:14:08.497Z,96.18
2019-06-21T03:15:08.492Z,96.27
2019-06-21T03:16:08.485Z,96.27
2019-06-21T03:17:08.459Z,96.18
2019-06-21T03:18:08.446Z,96.27
2019-06-21T03:19:08.434Z,96.37
2019-06-21T03:20:08.458Z,96.18
2019-06-21T03:21:08.405Z,96.27
2019-06-21T03:22:08.386Z,96.18
2019-06-21T03:23:08.380Z,96.03
2019-06-21T03:24:08.364Z,96.03
2019-06-21T03:25:09.099Z,96.32
2019-06-21T03:26:08.333Z,96.22
2019-06-21T03:27:08.324Z,96.13
2019-06-21T03:28:08.324Z,95.94
2019-06-21T03:29:08.291Z,96.03
2019-06-21T03:30:08.294Z,96.42
2019-06-21T03:31:08.273Z,96.22
2019-06-21T03:32:08.257Z,96.03
2019-06-21T03:33:08.292Z,96.42
2019-06-21T03:34:08.224Z,96.13
2019-06-21T03:35:08.223Z,96.13
2019-06-21T03:36:08.196Z,96.13
2019-06-21T03:37:08.175Z,96.22
2019-06-21T03:38:08.183Z,96.22
2019-06-21T03:39:08.152Z,95.75
2019-06-21T03:40:08.139Z,96.61
2019-06-21T03:41:08.127Z,96.61
2019-06-21T03:42:08.109Z,96.51
2019-06-21T03:43:08.092Z,96.70
2019-06-21T03:44:08.081Z,96.51
2019-06-21T03:45:08.064Z,96.51
2019-06-21T03:46:08.050Z,96.51
2019-06-21T03:47:08.047Z,96.46
2019-06-21T03:48:08.022Z,96.37
2019-06-21T03:49:08.009Z,96.17
2019-06-21T03:50:07.998Z,96.37
2019-06-21T03:51:07.986Z,96.37
2019-06-21T03:52:07.965Z,96.27
2019-06-21T03:53:07.956Z,96.46
2019-06-21T03:54:07.935Z,96.27
2019-06-21T03:55:07.930Z,96.17
2019-06-21T03:56:07.921Z,96.27
2019-06-21T03:57:07.898Z,96.08
2019-06-21T03:58:07.885Z,96.27
2019-06-21T03:59:07.872Z,96.56
2019-06-21T04:00:07.854Z,96.56
2019-06-21T04:01:07.837Z,96.56
2019-06-21T04:02:07.815Z,96.56
2019-06-21T04:03:07.810Z,96.37
2019-06-21T04:04:07.795Z,97.13
2019-06-21T04:05:07.781Z,97.32
2019-06-21T04:06:07.769Z,97.13
2019-06-21T04:07:07.761Z,96.94
2019-06-21T04:08:07.738Z,97.18
2019-06-21T04:09:07.727Z,96.99
2019-06-21T04:10:07.707Z,96.99
2019-06-21T04:11:07.715Z,97.18
2019-06-21T04:12:07.678Z,97.37
2019-06-21T04:13:07.664Z,97.18
2019-06-21T04:14:07.651Z,96.99
2019-06-21T04:15:07.636Z,97.28
2019-06-21T04:16:07.621Z,97.56
2019-06-21T04:17:07.614Z,97.37
2019-06-21T04:18:07.600Z,97.08
2019-06-21T04:19:07.578Z,96.99
2019-06-21T04:20:07.577Z,97.23
2019-06-21T04:21:07.548Z,97.42
2019-06-21T04:22:07.537Z,97.42
2019-06-21T04:23:07.529Z,97.13
2019-06-21T04:24:07.517Z,97.75
2019-06-21T04:25:07.513Z,97.47
2019-06-21T04:26:07.487Z,96.89
2019-06-21T04:27:07.476Z,97.28
2019-06-21T04:28:07.468Z,97.08
2019-06-21T04:29:07.448Z,97.28
2019-06-21T04:30:07.432Z,97.18
2019-06-21T04:31:07.422Z,96.75
2019-06-21T04:32:07.414Z,96.75
2019-06-21T04:33:07.382Z,96.47
2019-06-21T04:34:07.374Z,96.27
2019-06-21T04:35:07.361Z,96.47
2019-06-21T04:36:07.353Z,96.37
2019-06-21T04:37:07.330Z,96.47
2019-06-21T04:38:07.315Z,96.66
2019-06-21T04:39:07.310Z,96.13
2019-06-21T04:40:17.983Z,96.22
2019-06-21T04:41:07.279Z,96.42
2019-06-21T04:42:07.265Z,96.22
2019-06-21T04:43:07.248Z,96.51
2019-06-21T04:44:07.238Z,96.61
2019-06-21T04:45:07.241Z,96.42
2019-06-21T04:46:07.212Z,96.61
2019-06-21T04:47:10.139Z,95.94
2019-06-21T04:48:07.180Z,96.13
2019-06-21T04:49:07.167Z,96.42
2019-06-21T04:50:07.157Z,96.03
2019-06-21T04:51:07.146Z,96.22
2019-06-21T04:52:07.128Z,96.42
2019-06-21T04:53:07.112Z,96.32
2019-06-21T04:54:07.101Z,96.42
2019-06-21T04:55:07.087Z,96.42
2019-06-21T04:56:07.074Z,96.32
2019-06-21T04:57:07.060Z,96.32
2019-06-21T04:58:07.468Z,96.42
2019-06-21T04:59:07.036Z,96.51
2019-06-21T05:00:07.026Z,96.42
2019-06-21T05:01:07.001Z,96.22
2019-06-21T05:02:07.040Z,96.22
2019-06-21T05:03:06.982Z,96.61
2019-06-21T05:04:06.969Z,96.32
2019-06-21T05:05:06.956Z,95.94
2019-06-21T05:06:06.943Z,96.61
2019-06-21T05:07:06.932Z,96.22
2019-06-21T05:08:06.933Z,96.13
2019-06-21T05:09:06.901Z,96.22
2019-06-21T05:10:06.891Z,96.32
2019-06-21T05:11:06.878Z,96.13
2019-06-21T05:12:06.862Z,96.61
2019-06-21T05:13:06.854Z,96.22
2019-06-21T05:14:06.838Z,96.61
2019-06-21T05:15:12.205Z,96.42
2019-06-21T05:16:06.810Z,96.22
2019-06-21T05:17:06.800Z,96.13
2019-06-21T05:18:06.784Z,96.61
2019-06-21T05:19:06.767Z,96.51
2019-06-21T05:20:06.759Z,96.32
2019-06-21T05:21:06.739Z,96.42
2019-06-21T05:22:06.733Z,96.70
2019-06-21T05:23:06.718Z,96.51
2019-06-21T05:24:09.801Z,96.66
2019-06-21T05:25:06.688Z,96.47
2019-06-21T05:26:06.677Z,96.75
2019-06-21T05:27:06.664Z,96.47
2019-06-21T05:28:06.651Z,96.56
2019-06-21T05:29:06.662Z,96.56
2019-06-21T05:30:06.627Z,96.18
2019-06-21T05:31:06.613Z,95.98
2019-06-21T05:32:06.603Z,95.98
2019-06-21T05:33:06.591Z,96.47
2019-06-21T05:34:06.571Z,96.27
2019-06-21T05:35:06.570Z,96.37
2019-06-21T05:36:06.551Z,96.47
2019-06-21T05:37:06.551Z,96.47
2019-06-21T05:38:06.528Z,96.32
2019-06-21T05:39:06.510Z,96.32
2019-06-21T05:40:06.502Z,96.70
2019-06-21T05:41:06.488Z,96.51
2019-06-21T05:42:06.472Z,96.51
2019-06-21T05:43:06.461Z,96.61
2019-06-21T05:44:06.447Z,96.13
2019-06-21T05:45:06.436Z,96.42
2019-06-21T05:46:06.430Z,96.42
2019-06-21T05:47:06.407Z,96.51
2019-06-21T05:48:06.396Z,96.51
2019-06-21T05:49:06.387Z,96.75
2019-06-21T05:50:06.385Z,96.18
2019-06-21T05:51:06.365Z,95.70
2019-06-21T05:52:06.354Z,95.89
2019-06-21T05:53:06.337Z,96.08
2019-06-21T05:54:06.327Z,96.08
2019-06-21T05:55:06.316Z,95.70
2019-06-21T05:56:06.301Z,95.70
2019-06-21T05:57:06.289Z,95.89
2019-06-21T05:58:06.278Z,95.60
2019-06-21T05:59:06.982Z,95.98
2019-06-21T06:00:06.252Z,95.31
2019-06-21T06:01:06.244Z,95.12
2019-06-21T06:02:06.228Z,95.21
2019-06-21T06:03:06.217Z,95.36
2019-06-21T06:04:06.202Z,95.46
2019-06-21T06:05:06.191Z,95.17
2019-06-21T06:06:06.178Z,95.07
2019-06-21T06:07:06.171Z,94.88
2019-06-21T06:08:06.159Z,94.98
2019-06-21T06:09:06.162Z,95.26
2019-06-21T06:10:06.776Z,94.98
2019-06-21T06:11:07.609Z,94.69
2019-06-21T06:12:06.111Z,94.88
2019-06-21T06:13:06.099Z,94.59
2019-06-21T06:14:06.088Z,94.54
2019-06-21T06:15:06.068Z,94.69
2019-06-21T06:16:06.094Z,95.26
2019-06-21T06:17:06.080Z,94.54
2019-06-21T06:18:06.046Z,94.83
2019-06-21T06:19:06.027Z,94.54
2019-06-21T06:20:06.020Z,94.93
2019-06-21T06:21:06.008Z,94.26
2019-06-21T06:22:05.997Z,94.26
2019-06-21T06:23:05.979Z,94.93
2019-06-21T06:24:05.977Z,94.54
2019-06-21T06:25:05.962Z,94.64
2019-06-21T06:26:05.952Z,94.26
2019-06-21T06:27:05.940Z,94.07
2019-06-21T06:28:05.929Z,93.82
2019-06-21T06:29:05.917Z,93.44
2019-06-21T06:30:05.907Z,93.73
2019-06-21T06:31:05.899Z,93.92
2019-06-21T06:32:05.906Z,93.05
2019-06-21T06:33:05.876Z,93.05
2019-06-21T06:34:05.862Z,92.77
2019-06-21T06:35:05.861Z,93.19
2019-06-21T06:36:05.842Z,93.01
2019-06-21T06:37:05.829Z,92.62
2019-06-21T06:38:05.819Z,92.62
2019-06-21T06:39:05.856Z,92.81
2019-06-21T06:40:05.798Z,92.43
2019-06-21T06:41:18.589Z,92.14
2019-06-21T06:42:05.785Z,92.05
2019-06-21T06:43:05.767Z,92.05
2019-06-21T06:44:05.752Z,92.38
2019-06-21T06:45:05.748Z,92.19
2019-06-21T06:46:05.737Z,91.42
2019-06-21T06:47:05.726Z,91.52
2019-06-21T06:48:05.716Z,91.61
2019-06-21T06:49:05.699Z,90.84
2019-06-21T06:50:05.693Z,90.75
2019-06-21T06:51:05.684Z,90.75
2019-06-21T06:52:05.671Z,91.03
2019-06-21T06:53:05.667Z,90.94
2019-06-21T06:54:05.651Z,90.84
2019-06-21T06:55:05.656Z,90.65
2019-06-21T06:56:05.630Z,90.84
2019-06-21T06:57:05.707Z,90.07
2019-06-21T06:58:05.946Z,90.45
2019-06-21T06:59:05.606Z,90.21
2019-06-21T07:00:05.594Z,90.21
2019-06-21T07:01:05.585Z,89.73
2019-06-21T07:02:05.619Z,89.44
2019-06-21T07:03:05.570Z,89.54
2019-06-21T07:04:05.571Z,89.15
2019-06-21T07:05:05.546Z,89.39
2019-06-21T07:06:05.538Z,88.53
2019-06-21T07:07:05.561Z,88.81
2019-06-21T07:08:05.518Z,88.81
2019-06-21T07:09:05.501Z,88.71
2019-06-21T07:10:05.491Z,89.01
2019-06-21T07:11:05.599Z,88.38
2019-06-21T07:12:05.480Z,88.18
2019-06-21T07:13:05.469Z,88.18
2019-06-21T07:14:05.459Z,87.41
2019-06-21T07:15:05.444Z,86.93
2019-06-21T07:16:05.436Z,87.12
2019-06-21T07:17:05.462Z,86.98
2019-06-21T07:18:05.424Z,87.26
2019-06-21T07:19:05.415Z,86.59
2019-06-21T07:20:05.406Z,86.98
2019-06-21T07:21:05.409Z,86.30
2019-06-21T07:22:05.444Z,86.30
2019-06-21T07:23:05.404Z,86.21
2019-06-21T07:24:05.377Z,86.21
2019-06-21T07:25:05.361Z,86.11
2019-06-21T07:26:05.352Z,86.05
2019-06-21T07:27:05.353Z,85.77
2019-06-21T07:28:05.332Z,85.38
2019-06-21T07:29:05.334Z,85.38
2019-06-21T07:30:06.155Z,85.33
2019-06-21T07:31:05.312Z,85.03
2019-06-21T07:32:05.327Z,84.65
2019-06-21T07:33:05.296Z,84.21
2019-06-21T07:34:05.287Z,83.73
2019-06-21T07:35:05.297Z,83.53
2019-06-21T07:36:05.269Z,83.77
2019-06-21T07:37:05.265Z,83.09
2019-06-21T07:38:05.261Z,83.04
2019-06-21T07:39:05.259Z,82.46
2019-06-21T07:40:05.273Z,81.82
2019-06-21T07:41:05.240Z,81.63
2019-06-21T07:42:05.239Z,81.38
2019-06-21T07:43:05.232Z,80.80
2019-06-21T07:44:05.221Z,80.46
2019-06-21T07:45:05.215Z,80.55
2019-06-21T07:46:05.254Z,79.33
2019-06-21T07:47:05.226Z,79.43
2019-06-21T07:48:05.203Z,79.37
2019-06-21T07:49:05.196Z,78.31
2019-06-21T07:50:05.195Z,77.73
2019-06-21T07:51:05.189Z,77.76
2019-06-21T07:52:05.266Z,77.19
2019-06-21T07:53:05.178Z,76.60
2019-06-21T07:54:05.171Z,76.99
2019-06-21T07:55:06.359Z,76.60
2019-06-21T07:56:05.161Z,76.41
2019-06-21T07:57:07.866Z,76.02
2019-06-21T07:58:05.160Z,76.41
2019-06-21T07:59:05.145Z,76.37
2019-06-21T08:00:05.144Z,76.28
2019-06-21T08:01:05.207Z,76.18
2019-06-21T08:02:05.135Z,76.04
2019-06-21T08:03:05.123Z,76.24
2019-06-21T08:04:05.126Z,75.98
2019-06-21T08:05:05.117Z,75.50
2019-06-21T08:06:05.117Z,75.60
2019-06-21T08:07:05.108Z,75.21
2019-06-21T08:08:05.191Z,75.02
2019-06-21T08:09:05.104Z,74.92
2019-06-21T08:10:05.138Z,74.76
2019-06-21T08:11:05.087Z,74.28
2019-06-21T08:12:11.177Z,73.54
2019-06-21T08:13:05.079Z,72.86
2019-06-21T08:14:05.086Z,72.86
2019-06-21T08:15:05.075Z,72.47
2019-06-21T08:16:05.110Z,72.12
2019-06-21T08:17:05.054Z,71.89
2019-06-21T08:18:05.056Z,71.44
2019-06-21T08:19:05.060Z,71.06
2019-06-21T08:20:05.047Z,70.86
2019-06-21T08:21:05.044Z,70.67
2019-06-21T08:22:05.039Z,70.18
2019-06-21T08:23:05.036Z,70.21
2019-06-21T08:24:05.063Z,69.24
2019-06-21T08:25:05.027Z,69.73
2019-06-21T08:26:05.107Z,69.18
2019-06-21T08:27:05.021Z,69.12
2019-06-21T08:28:05.016Z,68.73
2019-06-21T08:29:05.012Z,67.76
2019-06-21T08:30:05.566Z,67.31
2019-06-21T08:31:05.016Z,66.92
2019-06-21T08:32:05.005Z,66.63
2019-06-21T08:33:05.010Z,66.37
2019-06-21T08:34:05.019Z,65.82
2019-06-21T08:35:04.995Z,65.33
2019-06-21T08:36:05.000Z,64.49
2019-06-21T08:37:04.990Z,63.78
2019-06-21T08:38:04.987Z,64.07
2019-06-21T08:39:04.983Z,63.94
2019-06-21T08:40:04.988Z,64.69
2019-06-21T08:41:04.978Z,64.56
2019-06-21T08:42:04.976Z,65.14
2019-06-21T08:43:04.974Z,65.43
2019-06-21T08:44:04.972Z,65.69
2019-06-21T08:45:04.970Z,65.79
2019-06-21T08:46:08.046Z,66.44
2019-06-21T08:47:04.983Z,66.30
2019-06-21T08:48:04.954Z,66.20
2019-06-21T08:49:04.953Z,66.75
2019-06-21T08:50:05.026Z,67.05
2019-06-21T08:51:04.949Z,66.72
2019-06-21T08:52:04.935Z,67.11
2019-06-21T08:53:04.933Z,67.18
2019-06-21T08:54:04.942Z,67.56
2019-06-21T08:55:04.919Z,67.76
2019-06-21T08:56:04.917Z,67.56
2019-06-21T08:57:04.956Z,67.46
2019-06-21T08:58:04.958Z,67.11
2019-06-21T08:59:04.904Z,66.34
2019-06-21T09:00:04.968Z,65.50
2019-06-21T09:01:04.905Z,64.47
2019-06-21T09:02:04.894Z,63.62
2019-06-21T09:03:04.886Z,63.26
2019-06-21T09:04:04.883Z,62.71
2019-06-21T09:05:04.875Z,62.23
2019-06-21T09:06:04.874Z,61.38
2019-06-21T09:07:04.879Z,60.64
2019-06-21T09:08:04.865Z,60.57
2019-06-21T09:09:04.861Z,59.99
2019-06-21T09:10:05.905Z,59.33
2019-06-21T09:11:04.854Z,58.85
2019-06-21T09:12:05.880Z,58.26
2019-06-21T09:13:07.635Z,58.17
2019-06-21T09:14:04.864Z,58.39
2019-06-21T09:15:04.841Z,57.32
2019-06-21T09:16:05.693Z,57.32
2019-06-21T09:17:04.835Z,57.15
2019-06-21T09:18:04.833Z,56.37
2019-06-21T09:19:04.834Z,55.86
2019-06-21T09:20:06.150Z,55.96
2019-06-21T09:21:04.823Z,56.35
2019-06-21T09:22:07.485Z,55.64
2019-06-21T09:23:07.198Z,55.25
2019-06-21T09:24:07.139Z,55.35
2019-06-21T09:25:05.801Z,55.22
2019-06-21T09:26:06.756Z,55.10
2019-06-21T09:27:05.641Z,55.19
2019-06-21T09:28:05.465Z,55.85
2019-06-21T09:29:06.407Z,55.73
2019-06-21T09:30:05.867Z,56.01
2019-06-21T09:31:05.269Z,56.70
2019-06-21T09:32:05.839Z,56.40
2019-06-21T09:33:05.750Z,56.30
2019-06-21T09:34:05.744Z,56.98
2019-06-21T09:35:07.872Z,56.96
2019-06-21T09:36:06.136Z,56.76
2019-06-21T09:37:06.307Z,57.06
2019-06-21T09:38:05.487Z,57.03
2019-06-21T09:39:06.389Z,57.32
2019-06-21T09:40:06.457Z,57.39
2019-06-21T09:41:09.549Z,57.87
2019-06-21T09:42:06.363Z,58.14
2019-06-21T09:43:14.444Z,58.01
2019-06-21T09:44:06.172Z,58.27
2019-06-21T09:45:06.954Z,59.05
2019-06-21T09:46:05.805Z,58.85
2019-06-21T09:47:06.328Z,59.50
2019-06-21T09:48:05.014Z,59.69
2019-06-21T09:49:05.414Z,59.47
2019-06-21T09:50:06.371Z,60.11
2019-06-21T09:51:09.476Z,60.41
2019-06-21T09:52:06.331Z,61.08
2019-06-21T09:53:20.849Z,61.37
2019-06-21T09:54:06.442Z,61.47
2019-06-21T09:55:06.407Z,61.76
2019-06-21T09:56:06.305Z,61.37
2019-06-21T09:57:05.025Z,61.95
2019-06-21T09:58:06.068Z,61.76
2019-06-21T09:59:06.873Z,61.83
2019-06-21T10:00:07.504Z,62.21
2019-06-21T10:01:05.863Z,61.86
2019-06-21T10:02:05.822Z,61.30
2019-06-21T10:03:06.707Z,60.66
2019-06-21T10:04:05.779Z,60.11
2019-06-21T10:05:05.776Z,59.91
2019-06-21T10:06:06.023Z,59.43
2019-06-21T10:07:05.411Z,59.63
2019-06-21T10:08:06.076Z,59.63
2019-06-21T10:09:05.424Z,59.91
2019-06-21T10:10:11.335Z,59.82
2019-06-21T10:11:06.230Z,59.91
2019-06-21T10:12:05.417Z,60.01
2019-06-21T10:13:05.048Z,60.04
2019-06-21T10:14:06.108Z,59.66
2019-06-21T10:15:05.746Z,58.65
2019-06-21T10:16:06.170Z,58.55
2019-06-21T10:17:07.195Z,57.80
2019-06-21T10:18:05.558Z,57.37
2019-06-21T10:19:05.483Z,56.79
2019-06-21T10:20:05.508Z,56.36
2019-06-21T10:21:04.757Z,55.61
2019-06-21T10:22:06.169Z,54.38
2019-06-21T10:23:05.502Z,53.52
2019-06-21T10:24:05.970Z,53.16
2019-06-21T10:25:05.696Z,52.31
2019-06-21T10:26:05.947Z,52.14
2019-06-21T10:27:04.550Z,50.87
2019-06-21T10:28:04.947Z,51.29
2019-06-21T10:29:07.164Z,51.21
2019-06-21T10:30:06.195Z,50.63
2019-06-21T10:31:05.570Z,50.36
2019-06-21T10:32:04.787Z,49.90
2019-06-21T10:33:05.744Z,49.26
2019-06-21T10:34:08.820Z,49.38
2019-06-21T10:35:04.891Z,48.14
2019-06-21T10:36:05.247Z,47.97
2019-06-21T10:37:05.497Z,47.01
2019-06-21T10:38:05.216Z,46.33
2019-06-21T10:39:04.469Z,46.62
2019-06-21T10:40:05.012Z,47.38
2019-06-21T10:41:04.769Z,46.97
2019-06-21T10:42:04.596Z,47.36
2019-06-21T10:43:08.488Z,47.55
2019-06-21T10:44:04.746Z,47.16
2019-06-21T10:45:04.671Z,46.98
2019-06-21T10:46:05.057Z,46.98
2019-06-21T10:47:04.469Z,47.08
2019-06-21T10:48:04.871Z,46.79
2019-06-21T10:49:04.457Z,46.40
2019-06-21T10:50:04.771Z,46.69
2019-06-21T10:51:04.575Z,46.23
2019-06-21T10:52:04.452Z,45.86
2019-06-21T10:53:04.456Z,45.59
2019-06-21T10:54:04.459Z,44.62
2019-06-21T10:55:04.453Z,44.04
2019-06-21T10:56:04.452Z,43.84
2019-06-21T10:57:04.449Z,43.65
2019-06-21T10:58:05.978Z,43.65
2019-06-21T10:59:04.458Z,43.66
2019-06-21T11:00:04.451Z,43.37
2019-06-21T11:01:04.463Z,42.58
2019-06-21T11:02:04.455Z,42.39
2019-06-21T11:03:04.481Z,42.10
2019-06-21T11:04:04.455Z,41.90
2019-06-21T11:05:04.453Z,41.90
2019-06-21T11:06:04.489Z,41.82
2019-06-21T11:07:04.457Z,42.02
2019-06-21T11:08:04.454Z,42.02
2019-06-21T11:09:04.449Z,41.82
2019-06-21T11:10:04.476Z,42.02
2019-06-21T11:11:04.460Z,41.55
2019-06-21T11:12:05.372Z,41.16
2019-06-21T11:13:04.886Z,40.96
2019-06-21T11:14:10.026Z,40.58
2019-06-21T11:15:05.656Z,40.78
2019-06-21T11:16:05.680Z,40.41
2019-06-21T11:17:05.815Z,39.82
2019-06-21T11:18:05.477Z,39.72
2019-06-21T11:19:05.631Z,39.32
2019-06-21T11:20:05.321Z,38.84
2019-06-21T11:21:05.260Z,39.13
2019-06-21T11:22:05.688Z,37.85
2019-06-21T11:23:05.867Z,37.93
2019-06-21T11:24:06.226Z,38.19
2019-06-21T11:25:04.467Z,38.76
2019-06-21T11:26:06.072Z,39.06
2019-06-21T11:27:05.235Z,39.43
2019-06-21T11:28:05.336Z,39.33
2019-06-21T11:29:06.213Z,39.23
2019-06-21T11:30:06.110Z,39.03
2019-06-21T11:31:04.536Z,38.35
2019-06-21T11:32:05.729Z,38.74
2019-06-21T11:33:05.210Z,39.33
2019-06-21T11:34:05.222Z,38.25
2019-06-21T11:35:05.179Z,38.72
2019-06-21T11:36:05.796Z,39.11
2019-06-21T11:37:04.920Z,39.47
2019-06-21T11:38:06.017Z,40.33
2019-06-21T11:39:04.488Z,40.50
2019-06-21T11:40:05.271Z,40.78
2019-06-21T11:41:06.083Z,41.54
2019-06-21T11:42:05.673Z,41.72
2019-06-21T11:43:04.501Z,42.11
2019-06-21T11:44:22.164Z,42.29
2019-06-21T11:45:13.452Z,42.38
2019-06-21T11:46:05.014Z,42.97
2019-06-21T11:47:05.349Z,42.69
2019-06-21T11:48:04.907Z,41.72
2019-06-21T11:49:06.068Z,41.54
2019-06-21T11:50:05.939Z,40.97
2019-06-21T11:51:04.998Z,40.68
2019-06-21T11:52:04.532Z,40.50
2019-06-21T11:53:04.977Z,40.33
2019-06-21T11:54:04.486Z,39.56
2019-06-21T11:55:05.648Z,39.39
2019-06-21T11:56:04.913Z,38.51
2019-06-21T11:57:05.234Z,38.33
2019-06-21T11:58:04.755Z,38.13
2019-06-21T11:59:04.488Z,38.06
2019-06-21T12:00:06.831Z,37.88
2019-06-21T12:01:05.473Z,37.70
2019-06-21T12:02:05.718Z,37.50
2019-06-21T12:03:05.645Z,37.32
2019-06-21T12:04:05.856Z,37.23
2019-06-21T12:05:05.206Z,37.44
2019-06-21T12:06:04.557Z,36.97
2019-06-21T12:07:04.608Z,36.57
2019-06-21T12:08:04.829Z,36.87
2019-06-21T12:09:05.556Z,36.55
2019-06-21T12:10:05.613Z,36.75
2019-06-21T12:11:04.960Z,36.65
2019-06-21T12:12:05.714Z,36.36
2019-06-21T12:13:05.808Z,36.47
2019-06-21T12:14:05.326Z,36.18
2019-06-21T12:15:06.414Z,35.80
2019-06-21T12:16:05.006Z,35.25
2019-06-21T12:17:05.146Z,34.95
2019-06-21T12:18:05.006Z,34.77
2019-06-21T12:19:04.614Z,34.87
2019-06-21T12:20:04.520Z,34.38
2019-06-21T12:21:05.197Z,34.38
2019-06-21T12:22:05.856Z,34.38
2019-06-21T12:23:08.613Z,33.79
2019-06-21T12:24:06.410Z,34.27
2019-06-21T12:25:05.515Z,34.75
2019-06-21T12:26:05.818Z,34.82
2019-06-21T12:27:06.063Z,34.70
2019-06-21T12:28:05.501Z,35.10
2019-06-21T12:29:05.210Z,35.59
2019-06-21T12:30:06.377Z,35.78
2019-06-21T12:31:05.121Z,35.59
2019-06-21T12:32:05.651Z,35.31
2019-06-21T12:33:05.623Z,35.03
2019-06-21T12:34:22.952Z,34.94
2019-06-21T12:35:06.490Z,34.54
2019-06-21T12:36:05.583Z,34.84
2019-06-21T12:37:06.150Z,34.74
2019-06-21T12:38:05.498Z,34.74
2019-06-21T12:39:06.037Z,34.82
2019-06-21T12:40:06.351Z,34.70
2019-06-21T12:41:05.766Z,34.87
2019-06-21T12:42:06.122Z,35.24
2019-06-21T12:43:06.122Z,35.91
2019-06-21T12:44:05.539Z,36.21
2019-06-21T12:45:05.978Z,36.11
2019-06-21T12:46:10.213Z,36.01
2019-06-21T12:47:06.261Z,36.11
2019-06-21T12:48:07.181Z,35.99
2019-06-21T12:49:06.667Z,36.08
2019-06-21T12:50:09.764Z,36.43
2019-06-21T12:51:04.618Z,36.71
2019-06-21T12:52:05.438Z,37.37